Time;durP1;ratioP1;P1;durP2;ratioP2;P2;SDS_P1;SDS_P2;PMS_P1;PMS_P2;Temp;Humidity;BMP_temperature;BMP_pressure;BME280_temperature;BME280_humidity;BME280_pressure;Samples;Min_cycle;Max_cycle;Signal;HPM_P1;HPM_P2
2022/02/07 00:00:44;;;;;;;;;;;3.40;83.30;;;;;;4923092;29;19912;-88
2022/02/07 00:03:31;;;;;;;;;;;3.40;83.50;;;;;;4905964;29;19918;-88
2022/02/07 00:05:57;;;;;;;;;;;3.30;83.60;;;;;;4921440;29;19915;-88
2022/02/07 00:08:25;;;;;;;;;;;3.30;83.80;;;;;;4904864;29;19922;-88
2022/02/07 00:10:51;;;;;;;;;;;3.20;83.90;;;;;;4904197;29;19946;-88
2022/02/07 00:13:21;;;;;;;;;;;3.20;84.00;;;;;;4904919;29;19911;-88
2022/02/07 00:15:47;;;;;;;;;;;3.20;84.10;;;;;;4905069;29;20271;-88
2022/02/07 00:18:16;;;;;;;;;;;3.10;84.10;;;;;;4921297;29;19915;-88
2022/02/07 00:20:41;;;;;;;;;;;3.00;84.20;;;;;;4921498;29;19969;-88
2022/02/07 00:23:09;;;;;;;;;;;2.90;84.40;;;;;;4904065;29;19915;-88
2022/02/07 00:25:38;;;;;;;;;;;2.80;84.60;;;;;;4903943;29;19946;-88
2022/02/07 00:28:04;;;;;;;;;;;2.70;84.60;;;;;;4904312;29;19964;-88
2022/02/07 00:30:29;;;;;;;;;;;2.70;85.30;;;;;;4904317;29;19911;-88
2022/02/07 00:32:57;;;;;;;;;;;2.60;85.50;;;;;;4903902;29;19915;-88
2022/02/07 00:35:25;;;;;;;;;;;2.50;85.90;;;;;;4903754;29;19918;-88
2022/02/07 00:37:56;;;;;;;;;;;2.50;86.20;;;;;;4903914;29;19967;-88
2022/02/07 00:48:00;;;;;;;;;;;2.30;87.20;;;;;;4920949;29;19912;-88
2022/02/07 00:50:26;;;;;;;;;;;2.30;87.40;;;;;;4904067;29;19919;-88
2022/02/07 00:52:52;;;;;;;;;;;2.30;87.90;;;;;;4903649;29;19944;-88
2022/02/07 00:55:20;;;;;;;;;;;2.30;88.10;;;;;;4903411;29;19911;-88
2022/02/07 00:57:53;;;;;;;;;;;2.30;88.00;;;;;;4920460;29;19987;-88
2022/02/07 01:00:19;;;;;;;;;;;2.30;88.00;;;;;;4919547;29;19911;-88
2022/02/07 01:02:45;;;;;;;;;;;2.30;88.00;;;;;;4902954;29;19911;-89
2022/02/07 01:05:11;;;;;;;;;;;2.30;88.20;;;;;;4903212;29;19957;-88
2022/02/07 01:07:37;;;;;;;;;;;2.30;88.70;;;;;;4903370;29;19915;-87
2022/02/07 01:10:04;;;;;;;;;;;2.30;88.50;;;;;;4920063;29;19917;-88
2022/02/07 01:15:31;;;;;;;;;;;2.20;88.30;;;;;;4919893;29;19911;-88
2022/02/07 01:23:14;;;;;;;;;;;2.20;88.50;;;;;;4920143;29;19982;-88
2022/02/07 01:55:44;;;;;;;;;;;2.20;88.10;;;;;;4919057;29;19975;-88
2022/02/07 01:58:10;;;;;;;;;;;2.20;88.30;;;;;;4902904;29;20267;-88
2022/02/07 02:00:37;;;;;;;;;;;2.20;88.40;;;;;;4902399;29;20006;-88
2022/02/07 02:03:06;;;;;;;;;;;2.20;88.60;;;;;;4919386;29;20406;-88
2022/02/07 02:05:36;;;;;;;;;;;2.30;88.50;;;;;;4902168;29;19962;-88
2022/02/07 02:08:06;;;;;;;;;;;2.30;88.40;;;;;;4902156;29;19926;-89
2022/02/07 02:10:32;;;;;;;;;;;2.30;88.40;;;;;;4902022;29;19940;-88
2022/02/07 02:13:06;;;;;;;;;;;2.40;88.60;;;;;;4919018;29;19934;-88
2022/02/07 02:15:41;;;;;;;;;;;2.40;88.60;;;;;;4902267;29;20009;-89
2022/02/07 02:47:50;;;;;;;;;;;2.40;88.40;;;;;;4918835;29;19918;-86
2022/02/07 02:50:30;;;;;;;;;;;2.40;88.60;;;;;;4901443;29;20001;-87
2022/02/07 02:52:57;;;;;;;;;;;2.40;88.60;;;;;;4901988;29;19915;-87
2022/02/07 02:55:22;;;;;;;;;;;2.40;88.80;;;;;;4901420;29;19912;-87
2022/02/07 02:57:53;;;;;;;;;;;2.30;88.80;;;;;;4901586;29;19915;-87
2022/02/07 03:00:18;;;;;;;;;;;2.30;89.00;;;;;;4901728;29;20009;-87
2022/02/07 03:02:49;;;;;;;;;;;2.30;89.20;;;;;;4901375;29;19953;-87
2022/02/07 03:05:25;;;;;;;;;;;2.30;89.40;;;;;;4901807;29;20339;-87
2022/02/07 03:07:50;;;;;;;;;;;2.30;89.40;;;;;;4918975;29;19916;-86
2022/02/07 03:13:15;;;;;;;;;;;2.30;90.00;;;;;;4914313;29;19967;-87
2022/02/07 03:16:41;;;;;;;;;;;2.30;89.90;;;;;;4918158;29;19983;-87
2022/02/07 03:18:36;;;;;;;;;;;2.30;90.00;;;;;;4901744;29;20382;-87
2022/02/07 03:21:02;;;;;;;;;;;2.30;90.10;;;;;;4901263;29;19911;-87
2022/02/07 03:23:28;;;;;;;;;;;2.30;90.10;;;;;;4901254;29;19918;-87
2022/02/07 03:25:54;;;;;;;;;;;2.30;90.00;;;;;;4918188;29;19911;-87
2022/02/07 03:28:23;;;;;;;;;;;2.30;90.10;;;;;;4901632;29;19915;-86
2022/02/07 03:30:49;;;;;;;;;;;2.30;90.00;;;;;;4901245;29;20255;-87
2022/02/07 03:33:14;;;;;;;;;;;2.30;90.00;;;;;;4901011;29;19911;-87
2022/02/07 03:35:42;;;;;;;;;;;2.30;90.00;;;;;;4901078;29;20375;-87
2022/02/07 03:38:15;;;;;;;;;;;2.40;90.00;;;;;;4918022;29;19922;-87
2022/02/07 03:40:41;;;;;;;;;;;2.40;90.00;;;;;;4918118;29;19915;-87
2022/02/07 03:43:09;;;;;;;;;;;2.40;90.00;;;;;;4916730;29;19911;-87
2022/02/07 03:45:35;;;;;;;;;;;2.40;90.00;;;;;;4900476;29;19930;-87
2022/02/07 03:48:00;;;;;;;;;;;2.40;89.90;;;;;;4901532;29;19911;-87
2022/02/07 03:50:26;;;;;;;;;;;2.50;89.80;;;;;;4917895;29;20248;-87
2022/02/07 03:52:52;;;;;;;;;;;2.50;89.50;;;;;;4900864;29;20319;-88
2022/02/07 03:55:17;;;;;;;;;;;2.50;89.40;;;;;;4901047;29;20274;-87
2022/02/07 03:57:45;;;;;;;;;;;2.60;89.40;;;;;;4900960;29;19915;-87
2022/02/07 04:00:14;;;;;;;;;;;2.60;89.20;;;;;;4900843;29;19918;-87
2022/02/07 04:02:46;;;;;;;;;;;2.60;89.60;;;;;;4900950;29;19923;-87
2022/02/07 04:05:41;;;;;;;;;;;2.70;88.90;;;;;;4902328;29;19919;-87
2022/02/07 04:08:10;;;;;;;;;;;2.70;88.90;;;;;;4904796;29;20359;-87
2022/02/07 04:10:50;;;;;;;;;;;2.70;88.80;;;;;;4921863;29;20019;-87
2022/02/07 04:13:26;;;;;;;;;;;2.70;88.70;;;;;;4904498;29;20243;-87
2022/02/07 04:15:53;;;;;;;;;;;2.70;88.50;;;;;;4904459;29;19915;-87
2022/02/07 04:18:25;;;;;;;;;;;2.80;88.50;;;;;;4904677;29;19922;-87
2022/02/07 04:20:50;;;;;;;;;;;2.70;88.20;;;;;;4903953;29;19911;-87
2022/02/07 04:23:18;;;;;;;;;;;2.80;88.30;;;;;;4903550;29;20290;-87
2022/02/07 04:25:44;;;;;;;;;;;2.80;88.20;;;;;;4904197;29;19934;-87
2022/02/07 04:28:10;;;;;;;;;;;2.80;88.10;;;;;;4903932;29;20271;-87
2022/02/07 04:30:36;;;;;;;;;;;2.80;88.10;;;;;;4904047;29;19922;-87
2022/02/07 04:33:01;;;;;;;;;;;2.80;88.00;;;;;;4904169;29;19911;-87
2022/02/07 04:35:27;;;;;;;;;;;2.80;88.00;;;;;;4903924;29;19911;-87
2022/02/07 04:38:02;;;;;;;;;;;;;;;;;;;;;
2022/02/07 04:40:28;;;;;;;;;;;2.80;87.80;;;;;;4920977;29;19928;-88
2022/02/07 04:42:54;;;;;;;;;;;2.80;87.70;;;;;;4903703;29;20088;-87
2022/02/07 04:45:37;;;;;;;;;;;2.80;87.70;;;;;;4903708;29;19923;-87
2022/02/07 04:48:35;;;;;;;;;;;2.80;87.60;;;;;;4903730;29;19994;-88
2022/02/07 04:54:06;;;;;;;;;;;2.80;87.40;;;;;;4920471;29;19915;-87
2022/02/07 04:59:15;;;;;;;;;;;2.90;87.30;;;;;;4920743;29;20010;-87
2022/02/07 05:01:51;;;;;;;;;;;2.90;87.30;;;;;;4903696;29;19963;-87
2022/02/07 05:04:32;;;;;;;;;;;2.90;87.30;;;;;;4920276;29;20311;-88
2022/02/07 05:15:13;;;;;;;;;;;3.00;86.90;;;;;;4920221;29;20331;-87
2022/02/07 05:17:40;;;;;;;;;;;3.00;86.80;;;;;;4903093;29;19919;-87
2022/02/07 05:20:11;;;;;;;;;;;3.00;86.90;;;;;;4903240;29;19912;-87
2022/02/07 05:22:37;;;;;;;;;;;3.10;87.00;;;;;;4920201;29;20417;-88
2022/02/07 05:25:05;;;;;;;;;;;3.10;86.90;;;;;;4903655;29;20081;-87
2022/02/07 05:27:31;;;;;;;;;;;3.10;87.00;;;;;;4903487;29;19918;-87
2022/02/07 05:29:57;;;;;;;;;;;3.20;87.00;;;;;;4903528;29;19915;-87
2022/02/07 05:32:27;;;;;;;;;;;3.20;86.70;;;;;;4919719;29;19911;-88
2022/02/07 05:34:54;;;;;;;;;;;3.20;86.70;;;;;;4918389;29;20006;-87
2022/02/07 05:37:21;;;;;;;;;;;3.30;86.80;;;;;;4920225;29;19962;-87
2022/02/07 05:39:54;;;;;;;;;;;3.30;86.70;;;;;;4909751;29;19916;-87
2022/02/07 05:42:20;;;;;;;;;;;3.30;86.60;;;;;;4933793;29;19911;-87
2022/02/07 05:44:48;;;;;;;;;;;3.30;86.50;;;;;;4915105;29;20046;-88
2022/02/07 05:47:14;;;;;;;;;;;3.30;86.50;;;;;;4908487;29;19998;-87
2022/02/07 05:49:42;;;;;;;;;;;3.30;86.40;;;;;;4902639;29;19943;-88
2022/02/07 05:52:08;;;;;;;;;;;3.30;86.50;;;;;;4902515;29;20359;-88
2022/02/07 05:54:34;;;;;;;;;;;3.30;86.00;;;;;;4902333;29;19923;-88
2022/02/07 05:56:59;;;;;;;;;;;3.30;86.10;;;;;;4902394;29;19922;-88
2022/02/07 05:59:27;;;;;;;;;;;3.30;86.40;;;;;;4923445;29;19915;-88
2022/02/07 06:01:53;;;;;;;;;;;3.30;86.50;;;;;;4906954;29;20059;-88
2022/02/07 06:04:30;;;;;;;;;;;3.30;86.50;;;;;;4907548;29;19911;-88
2022/02/07 06:06:56;;;;;;;;;;;3.30;86.20;;;;;;4916263;29;19981;-89
2022/02/07 06:09:24;;;;;;;;;;;3.30;86.20;;;;;;4884215;29;19912;-88
2022/02/07 06:11:50;;;;;;;;;;;3.30;85.30;;;;;;4900487;29;20248;-88
2022/02/07 06:14:16;;;;;;;;;;;3.30;85.90;;;;;;4884423;29;19915;-88
2022/02/07 06:16:42;;;;;;;;;;;3.20;85.80;;;;;;4900963;29;20099;-87
2022/02/07 06:19:08;;;;;;;;;;;3.20;85.90;;;;;;4900790;29;19915;-88
2022/02/07 06:21:36;;;;;;;;;;;3.20;85.90;;;;;;4884784;29;19934;-87
2022/02/07 06:24:02;;;;;;;;;;;3.20;86.10;;;;;;4884398;29;19979;-88
2022/02/07 06:26:29;;;;;;;;;;;3.20;86.10;;;;;;4884058;29;19923;-88
2022/02/07 06:28:57;;;;;;;;;;;3.20;86.30;;;;;;4883191;29;19919;-88
2022/02/07 06:31:23;;;;;;;;;;;3.20;86.20;;;;;;4915327;29;19918;-88
2022/02/07 06:33:49;;;;;;;;;;;3.20;86.00;;;;;;4883255;29;19915;-88
2022/02/07 06:36:17;;;;;;;;;;;3.20;86.20;;;;;;4883772;29;19923;-88
2022/02/07 06:38:45;;;;;;;;;;;3.20;86.30;;;;;;4883212;29;19922;-89
2022/02/07 06:41:11;;;;;;;;;;;3.20;86.70;;;;;;4891654;29;20014;-89
2022/02/07 06:43:39;;;;;;;;;;;3.20;86.90;;;;;;4901052;29;19979;-89
2022/02/07 06:46:05;;;;;;;;;;;3.20;87.00;;;;;;4918099;29;19911;-89
2022/02/07 06:48:31;;;;;;;;;;;3.20;87.10;;;;;;4902689;29;20290;-88
2022/02/07 06:50:59;;;;;;;;;;;3.30;87.20;;;;;;4918868;29;20385;-87
2022/02/07 06:53:24;;;;;;;;;;;3.40;87.00;;;;;;4901825;29;19923;-88
2022/02/07 06:55:53;;;;;;;;;;;3.40;86.70;;;;;;4902445;29;19915;-87
2022/02/07 06:58:21;;;;;;;;;;;3.50;86.50;;;;;;4916970;29;19915;-88
2022/02/07 07:00:47;;;;;;;;;;;3.60;86.20;;;;;;4918508;29;19915;-87
2022/02/07 07:03:21;;;;;;;;;;;3.60;86.20;;;;;;4918726;29;20079;-89
2022/02/07 07:05:49;;;;;;;;;;;3.70;85.70;;;;;;4901698;29;19926;-87
2022/02/07 07:08:15;;;;;;;;;;;3.70;85.60;;;;;;4918366;29;19915;-88
2022/02/07 07:10:45;;;;;;;;;;;3.80;85.10;;;;;;4918602;29;20422;-88
2022/02/07 07:13:14;;;;;;;;;;;3.90;84.00;;;;;;4900825;29;19968;-87
2022/02/07 07:15:43;;;;;;;;;;;3.90;84.30;;;;;;4901041;29;19911;-87
2022/02/07 07:18:20;;;;;;;;;;;4.00;84.20;;;;;;4900509;29;19958;-87
2022/02/07 07:20:46;;;;;;;;;;;4.10;83.80;;;;;;4918096;29;19911;-87
2022/02/07 07:23:20;;;;;;;;;;;4.10;83.30;;;;;;4900916;29;19918;-88
2022/02/07 07:25:48;;;;;;;;;;;4.20;83.30;;;;;;4901092;29;20278;-88
2022/02/07 07:28:17;;;;;;;;;;;4.30;83.40;;;;;;4900969;29;19911;-88
2022/02/07 07:30:53;;;;;;;;;;;4.30;82.60;;;;;;4901317;29;19967;-88
2022/02/07 07:33:22;;;;;;;;;;;4.40;82.80;;;;;;4901329;29;19911;-88
2022/02/07 07:35:58;;;;;;;;;;;4.50;82.70;;;;;;4900814;29;19915;-90
2022/02/07 07:38:37;;;;;;;;;;;4.60;82.00;;;;;;4917526;29;20479;-87
2022/02/07 07:41:03;;;;;;;;;;;4.60;81.50;;;;;;4919224;29;19967;-87
2022/02/07 07:43:45;;;;;;;;;;;4.70;81.70;;;;;;4921229;29;19927;-89
2022/02/07 07:46:20;;;;;;;;;;;4.70;80.90;;;;;;4905202;29;19915;-89
2022/02/07 07:48:56;;;;;;;;;;;4.80;81.60;;;;;;4920812;29;19966;-88
2022/02/07 08:03:21;;;;;;;;;;;5.20;80.10;;;;;;4922213;29;20371;-88
2022/02/07 08:05:48;;;;;;;;;;;5.20;79.20;;;;;;4920308;29;19917;-88
2022/02/07 08:08:32;;;;;;;;;;;5.20;77.90;;;;;;4903574;29;19920;-88
2022/02/07 08:11:07;;;;;;;;;;;5.30;78.70;;;;;;4921264;29;19911;-88
2022/02/07 08:13:33;;;;;;;;;;;5.30;79.00;;;;;;4904644;29;19911;-86
2022/02/07 08:15:59;;;;;;;;;;;5.30;78.60;;;;;;4919659;29;19978;-87
2022/02/07 08:18:28;;;;;;;;;;;5.40;78.50;;;;;;4918805;29;20010;-87
2022/02/07 08:20:53;;;;;;;;;;;5.40;78.20;;;;;;4918976;29;20230;-88
2022/02/07 08:23:43;;;;;;;;;;;;;;;;;;;;;
2022/02/07 08:26:20;;;;;;;;;;;5.50;78.20;;;;;;4920327;29;20366;-89
2022/02/07 08:28:54;;;;;;;;;;;5.60;78.10;;;;;;4916300;29;19975;-90
2022/02/07 08:31:20;;;;;;;;;;;5.70;78.70;;;;;;4914523;29;19927;-87
2022/02/07 08:33:48;;;;;;;;;;;5.80;78.50;;;;;;4918889;29;19930;-88
2022/02/07 08:36:16;;;;;;;;;;;5.90;77.30;;;;;;4918853;29;19919;-87
2022/02/07 08:38:43;;;;;;;;;;;5.90;76.90;;;;;;4905463;29;19919;-87
2022/02/07 08:41:10;;;;;;;;;;;5.90;76.30;;;;;;4906202;29;19915;-88
2022/02/07 08:43:47;;;;;;;;;;;5.80;75.70;;;;;;4919332;29;19911;-88
2022/02/07 08:46:14;;;;;;;;;;;5.70;76.20;;;;;;4902018;29;19919;-87
2022/02/07 08:49:03;;;;;;;;;;;5.60;77.60;;;;;;4918449;29;19911;-87
2022/02/07 08:51:31;;;;;;;;;;;5.70;78.30;;;;;;4899812;29;20301;-87
2022/02/07 08:53:57;;;;;;;;;;;5.70;78.50;;;;;;4913161;29;20035;-88
2022/02/07 08:56:37;;;;;;;;;;;5.60;77.60;;;;;;4918217;29;19916;-86
2022/02/07 08:59:09;;;;;;;;;;;5.50;77.70;;;;;;4903049;29;19982;-87
2022/02/07 09:01:55;;;;;;;;;;;5.40;78.40;;;;;;4902741;29;19912;-86
2022/02/07 09:04:44;;;;;;;;;;;5.30;79.20;;;;;;4911697;29;20273;-87
2022/02/07 09:07:23;;;;;;;;;;;5.30;79.60;;;;;;4918056;29;19926;-87
2022/02/07 09:09:50;;;;;;;;;;;5.30;80.40;;;;;;4901512;29;19981;-88
2022/02/07 09:12:15;;;;;;;;;;;5.30;80.00;;;;;;4918075;29;19915;-88
2022/02/07 09:15:01;;;;;;;;;;;5.20;80.10;;;;;;4921148;29;19945;-91
2022/02/07 09:17:29;;;;;;;;;;;5.10;80.20;;;;;;4938380;29;19914;-91
2022/02/07 09:19:56;;;;;;;;;;;5.00;80.60;;;;;;4920857;29;19915;-87
2022/02/07 09:22:21;;;;;;;;;;;5.00;81.10;;;;;;4920295;29;20350;-89
2022/02/07 09:24:47;;;;;;;;;;;5.00;81.30;;;;;;4910513;29;19911;-88
2022/02/07 09:27:13;;;;;;;;;;;5.00;81.50;;;;;;4918084;29;19939;-89
2022/02/07 09:29:40;;;;;;;;;;;5.00;81.70;;;;;;4902192;29;19920;-87
2022/02/07 09:32:07;;;;;;;;;;;5.10;82.20;;;;;;4912549;29;20393;-88
2022/02/07 09:37:54;;;;;;;;;;;5.20;82.40;;;;;;4860623;29;19927;-88
2022/02/07 09:40:21;;;;;;;;;;;5.40;82.40;;;;;;4860338;29;20428;-88
2022/02/07 09:56:20;;;;;;;;;;;6.00;81.40;;;;;;4766857;30;19928;-90
2022/02/07 09:59:27;;;;;;;;;;;6.20;81.10;;;;;;4800988;29;19917;-90
2022/02/07 10:39:56;;;;;;;;;;;7.00;76.10;;;;;;4762916;30;20398;-90
2022/02/07 10:42:55;;;;;;;;;;;7.10;76.50;;;;;;4769930;30;19968;-89
2022/02/07 10:45:49;;;;;;;;;;;7.10;76.70;;;;;;4787058;29;19974;-88
2022/02/07 10:48:36;;;;;;;;;;;7.20;76.70;;;;;;4814832;29;19972;-89
2022/02/07 10:51:20;;;;;;;;;;;7.30;76.50;;;;;;4842359;29;20222;-87
2022/02/07 10:53:50;;;;;;;;;;;7.40;76.60;;;;;;4857059;29;20322;-90
2022/02/07 10:56:34;;;;;;;;;;;7.40;76.70;;;;;;4899625;29;20011;-89
2022/02/07 10:59:17;;;;;;;;;;;7.50;76.40;;;;;;4900420;29;19916;-90
2022/02/07 11:05:06;;;;;;;;;;;7.50;75.60;;;;;;4887150;29;19915;-89
2022/02/07 11:08:17;;;;;;;;;;;7.50;76.00;;;;;;4879802;29;20376;-88
2022/02/07 11:11:27;;;;;;;;;;;;;;;;;;;;;
2022/02/07 11:13:58;;;;;;;;;;;7.40;75.50;;;;;;4891339;29;20259;-88
2022/02/07 11:19:36;;;;;;;;;;;7.40;74.30;;;;;;4878832;29;20284;-88
2022/02/07 11:22:11;;;;;;;;;;;7.30;74.20;;;;;;4868526;29;19918;-89
2022/02/07 11:27:56;;;;;;;;;;;7.20;74.20;;;;;;4890891;29;19915;-88
2022/02/07 11:30:49;;;;;;;;;;;7.10;73.60;;;;;;4896509;29;19924;-91
2022/02/07 11:33:31;;;;;;;;;;;7.00;73.80;;;;;;4901358;29;19916;-90
2022/02/07 11:36:04;;;;;;;;;;;6.90;73.50;;;;;;4910642;29;19927;-91
2022/02/07 11:38:55;;;;;;;;;;;6.90;74.60;;;;;;4893608;29;19919;-90
2022/02/07 11:41:42;;;;;;;;;;;6.90;74.80;;;;;;4882023;29;19923;-90
2022/02/07 11:44:47;;;;;;;;;;;6.90;75.20;;;;;;4909408;29;19950;-90
2022/02/07 11:47:39;;;;;;;;;;;6.80;75.00;;;;;;4899942;29;19924;-89
2022/02/07 11:50:20;;;;;;;;;;;6.80;75.30;;;;;;4908511;29;19916;-90
2022/02/07 11:53:08;;;;;;;;;;;6.80;75.80;;;;;;4913190;29;19927;-90
2022/02/07 11:56:05;;;;;;;;;;;6.80;75.80;;;;;;4911144;29;19912;-90
2022/02/07 11:58:41;;;;;;;;;;;6.80;75.70;;;;;;4893818;29;19924;-91
2022/02/07 12:01:24;;;;;;;;;;;;;;;;;;;;;
2022/02/07 12:04:17;;;;;;;;;;;6.70;76.10;;;;;;4899640;29;19916;-89
2022/02/07 12:10:19;;;;;;;;;;;6.50;76.60;;;;;;4891871;29;20305;-89
2022/02/07 12:13:01;;;;;;;;;;;6.40;76.90;;;;;;4899066;29;19938;-90
2022/02/07 12:15:45;;;;;;;;;;;6.20;78.20;;;;;;4895659;29;19920;-90
2022/02/07 12:18:26;;;;;;;;;;;6.10;78.60;;;;;;4876056;29;19972;-89
2022/02/07 12:20:53;;;;;;;;;;;6.00;79.60;;;;;;4882363;29;19912;-89
2022/02/07 12:23:32;;;;;;;;;;;5.90;81.00;;;;;;4897674;29;19918;-89
2022/02/07 12:26:08;;;;;;;;;;;5.80;82.40;;;;;;4899448;29;19915;-90
2022/02/07 12:28:50;;;;;;;;;;;5.70;83.20;;;;;;4882443;29;19960;-90
2022/02/07 12:31:29;;;;;;;;;;;5.70;83.40;;;;;;4882993;29;19923;-90
2022/02/07 12:34:29;;;;;;;;;;;5.70;83.90;;;;;;4893311;29;19971;-90
2022/02/07 12:37:16;;;;;;;;;;;5.70;85.00;;;;;;4887244;29;19922;-90
2022/02/07 12:39:47;;;;;;;;;;;5.70;84.00;;;;;;4891525;29;20383;-89
2022/02/07 12:42:23;;;;;;;;;;;5.60;85.40;;;;;;4896016;29;19912;-90
2022/02/07 12:44:54;;;;;;;;;;;5.60;87.20;;;;;;4901949;29;19959;-89
2022/02/07 12:47:34;;;;;;;;;;;;;;;;;;;;;
2022/02/07 12:50:11;;;;;;;;;;;5.60;86.90;;;;;;4908280;29;19916;-90
2022/02/07 12:55:37;;;;;;;;;;;5.40;87.40;;;;;;4918828;29;19943;-90
2022/02/07 12:58:06;;;;;;;;;;;5.40;88.40;;;;;;4903305;29;19935;-90
2022/02/07 13:00:36;;;;;;;;;;;5.40;89.00;;;;;;4914519;29;19912;-89
2022/02/07 13:03:05;;;;;;;;;;;5.40;88.50;;;;;;4901548;29;19922;-90
2022/02/07 13:05:39;;;;;;;;;;;5.40;90.00;;;;;;4919088;29;19916;-91
2022/02/07 13:08:15;;;;;;;;;;;;;;;;;;;;;
2022/02/07 13:10:47;;;;;;;;;;;5.50;90.20;;;;;;4916224;29;19915;-90
2022/02/07 13:13:49;;;;;;;;;;;;;;;;;;;;;
2022/02/07 13:16:31;;;;;;;;;;;5.50;90.20;;;;;;4905235;29;19935;-89
2022/02/07 13:19:20;;;;;;;;;;;5.50;90.30;;;;;;4920050;29;19942;-90
2022/02/07 13:21:55;;;;;;;;;;;5.50;90.20;;;;;;4919485;29;20021;-90
2022/02/07 13:25:00;;;;;;;;;;;5.60;91.50;;;;;;4919078;29;19966;-89
2022/02/07 13:28:07;;;;;;;;;;;5.70;91.90;;;;;;4916511;29;20022;-90
2022/02/07 13:30:44;;;;;;;;;;;5.90;92.00;;;;;;4916162;29;19911;-89
2022/02/07 13:33:12;;;;;;;;;;;6.00;91.80;;;;;;4902921;29;19920;-90
2022/02/07 13:35:58;;;;;;;;;;;6.10;91.30;;;;;;4919752;29;19966;-91
2022/02/07 13:38:28;;;;;;;;;;;6.20;91.00;;;;;;4917057;29;19915;-89
2022/02/07 13:41:56;;;;;;;;;;;6.20;90.30;;;;;;4920009;29;20335;-89
2022/02/07 13:44:18;;;;;;;;;;;6.10;90.20;;;;;;4915350;29;19986;-91
2022/02/07 13:46:47;;;;;;;;;;;6.10;90.60;;;;;;4918861;29;20397;-90
2022/02/07 13:49:33;;;;;;;;;;;;;;;;;;;;;
2022/02/07 13:51:59;;;;;;;;;;;6.10;91.20;;;;;;4913668;29;20284;-88
2022/02/07 13:54:30;;;;;;;;;;;6.10;91.60;;;;;;4918972;29;19911;-89
2022/02/07 13:59:56;;;;;;;;;;;6.00;92.10;;;;;;4918408;29;19947;-87
2022/02/07 14:02:26;;;;;;;;;;;5.90;91.40;;;;;;4899535;29;19926;-91
2022/02/07 14:04:53;;;;;;;;;;;5.90;91.80;;;;;;4916510;29;19915;-87
2022/02/07 14:07:22;;;;;;;;;;;5.80;92.20;;;;;;4916206;29;20010;-90
2022/02/07 14:09:55;;;;;;;;;;;5.80;91.50;;;;;;4918373;29;19911;-91
2022/02/07 14:12:21;;;;;;;;;;;5.80;92.00;;;;;;4902580;29;19915;-90
2022/02/07 14:15:16;;;;;;;;;;;5.70;92.00;;;;;;4927344;29;19974;-91
2022/02/07 14:17:44;;;;;;;;;;;5.70;92.20;;;;;;4903094;29;19930;-89
2022/02/07 14:20:13;;;;;;;;;;;5.70;92.50;;;;;;4907387;29;19915;-87
2022/02/07 14:22:40;;;;;;;;;;;5.60;92.60;;;;;;4918128;29;20019;-88
2022/02/07 14:25:07;;;;;;;;;;;5.60;92.80;;;;;;4915916;29;19927;-86
2022/02/07 14:27:40;;;;;;;;;;;5.60;93.20;;;;;;4918154;29;19915;-87
2022/02/07 14:30:11;;;;;;;;;;;5.60;93.40;;;;;;4916946;29;19922;-87
2022/02/07 14:32:37;;;;;;;;;;;5.60;93.00;;;;;;4897058;29;20199;-88
2022/02/07 14:35:04;;;;;;;;;;;5.50;93.10;;;;;;4916011;29;19915;-88
2022/02/07 14:37:29;;;;;;;;;;;5.50;93.00;;;;;;4914991;29;19923;-88
2022/02/07 14:39:56;;;;;;;;;;;5.40;93.50;;;;;;4899871;29;19915;-89
2022/02/07 14:42:38;;;;;;;;;;;5.40;93.40;;;;;;4917461;29;19922;-88
2022/02/07 14:45:26;;;;;;;;;;;5.40;93.50;;;;;;4904725;29;19919;-89
2022/02/07 14:47:56;;;;;;;;;;;5.40;93.30;;;;;;4912862;29;19924;-89
2022/02/07 14:50:25;;;;;;;;;;;5.30;93.70;;;;;;4908356;29;19922;-89
2022/02/07 14:52:52;;;;;;;;;;;5.30;93.60;;;;;;4899730;29;20001;-90
2022/02/07 14:55:24;;;;;;;;;;;5.30;93.40;;;;;;4916791;29;19915;-91
2022/02/07 14:58:23;;;;;;;;;;;5.30;94.40;;;;;;4895791;29;19919;-90
2022/02/07 15:01:14;;;;;;;;;;;5.30;94.20;;;;;;4911661;29;19918;-90
2022/02/07 15:03:51;;;;;;;;;;;5.30;93.50;;;;;;4920590;29;19923;-90
2022/02/07 15:06:29;;;;;;;;;;;5.30;93.80;;;;;;4918666;29;19915;-91
2022/02/07 15:09:09;;;;;;;;;;;5.30;94.30;;;;;;4919346;29;20359;-91
2022/02/07 15:11:45;;;;;;;;;;;5.30;94.00;;;;;;4916950;29;19922;-91
2022/02/07 15:14:24;;;;;;;;;;;5.30;93.90;;;;;;4916793;29;19915;-91
2022/02/07 15:16:58;;;;;;;;;;;5.30;94.30;;;;;;4917678;29;19926;-91
2022/02/07 15:19:44;;;;;;;;;;;;;;;;;;;;;
2022/02/07 15:22:17;;;;;;;;;;;5.30;94.40;;;;;;4918247;29;19921;-91
2022/02/07 15:24:59;;;;;;;;;;;;;;;;;;;;;
2022/02/07 15:27:29;;;;;;;;;;;5.40;94.20;;;;;;4917240;29;19915;-90
2022/02/07 15:30:18;;;;;;;;;;;5.40;94.20;;;;;;4917193;29;20367;-92
2022/02/07 15:32:54;;;;;;;;;;;5.40;94.50;;;;;;4893748;29;20371;-93
2022/02/07 15:35:28;;;;;;;;;;;5.50;94.50;;;;;;4900924;29;19916;-92
2022/02/07 15:41:17;;;;;;;;;;;5.50;94.40;;;;;;4892917;29;19942;-91
2022/02/07 15:43:58;;;;;;;;;;;;;;;;;;;;;
2022/02/07 15:46:53;;;;;;;;;;;5.60;94.30;;;;;;4912110;29;20024;-92
2022/02/07 15:49:56;;;;;;;;;;;;;;;;;;;;;
2022/02/07 15:52:43;;;;;;;;;;;5.60;94.10;;;;;;4919364;29;19915;-92
2022/02/07 15:55:29;;;;;;;;;;;5.60;94.20;;;;;;4918117;29;20798;-93
2022/02/07 15:58:18;;;;;;;;;;;5.70;94.00;;;;;;4918644;29;20401;-93
2022/02/07 16:00:55;;;;;;;;;;;5.70;94.10;;;;;;4905701;29;19919;-91
2022/02/07 16:03:31;;;;;;;;;;;5.70;93.90;;;;;;4904997;29;19920;-92
2022/02/07 16:06:18;;;;;;;;;;;5.80;93.90;;;;;;4921390;29;19931;-92
2022/02/07 16:11:57;;;;;;;;;;;5.80;93.80;;;;;;4919832;29;19919;-92
2022/02/07 16:14:31;;;;;;;;;;;5.80;94.00;;;;;;4921727;29;19966;-91
2022/02/07 16:17:12;;;;;;;;;;;5.80;93.80;;;;;;4905319;29;19923;-91
2022/02/07 16:20:00;;;;;;;;;;;5.70;93.80;;;;;;4915948;29;19922;-90
2022/02/07 16:22:58;;;;;;;;;;;5.60;94.00;;;;;;4910361;29;19982;-91
2022/02/07 16:25:39;;;;;;;;;;;5.50;93.90;;;;;;4904031;29;20241;-92
2022/02/07 16:28:18;;;;;;;;;;;5.40;94.00;;;;;;4904912;29;19918;-93
2022/02/07 16:31:32;;;;;;;;;;;;;;;;;;;;;
2022/02/07 16:33:53;;;;;;;;;;;;;;;;;;;;;
2022/02/07 16:36:55;;;;;;;;;;;5.20;95.00;;;;;;4921501;29;20351;-92
2022/02/07 16:39:44;;;;;;;;;;;;;;;;;;;;;
2022/02/07 16:42:36;;;;;;;;;;;5.10;94.50;;;;;;4906713;29;19919;-93
2022/02/07 16:45:49;;;;;;;;;;;;;;;;;;;;;
2022/02/07 16:48:14;;;;;;;;;;;5.00;94.90;;;;;;4942838;29;19930;-92
2022/02/07 16:50:44;;;;;;;;;;;5.00;95.80;;;;;;4936669;29;19915;-92
2022/02/07 16:53:29;;;;;;;;;;;4.90;95.50;;;;;;4927158;29;20418;-93
2022/02/07 16:55:55;;;;;;;;;;;4.90;96.00;;;;;;4919725;29;19938;-92
2022/02/07 16:58:33;;;;;;;;;;;4.90;95.80;;;;;;4922764;29;20371;-92
2022/02/07 17:01:14;;;;;;;;;;;4.80;96.50;;;;;;4937573;29;19944;-93
2022/02/07 17:03:59;;;;;;;;;;;4.80;96.40;;;;;;4932245;29;19982;-91
2022/02/07 17:06:38;;;;;;;;;;;4.70;97.10;;;;;;4905927;29;19974;-93
2022/02/07 17:09:19;;;;;;;;;;;4.70;96.00;;;;;;4906916;29;19926;-91
2022/02/07 17:11:58;;;;;;;;;;;4.50;97.30;;;;;;4921473;29;19911;-91
2022/02/07 17:14:59;;;;;;;;;;;4.40;96.70;;;;;;4923855;29;19965;-91
2022/02/07 17:17:44;;;;;;;;;;;4.20;98.10;;;;;;4920048;29;20544;-89
2022/02/07 17:20:17;;;;;;;;;;;4.10;98.40;;;;;;4940173;29;19918;-93
2022/02/07 17:22:50;;;;;;;;;;;4.00;97.60;;;;;;4915981;29;19917;-92
2022/02/07 17:25:33;;;;;;;;;;;;;;;;;;;;;
2022/02/07 17:28:35;;;;;;;;;;;;;;;;;;;;;
2022/02/07 17:31:03;;;;;;;;;;;3.90;98.20;;;;;;4916500;29;19911;-91
2022/02/07 17:33:35;;;;;;;;;;;3.80;98.60;;;;;;4928714;29;19915;-91
2022/02/07 17:36:07;;;;;;;;;;;3.80;99.70;;;;;;4896228;29;19933;-91
2022/02/07 17:38:55;;;;;;;;;;;3.70;99.20;;;;;;4911551;29;19912;-91
2022/02/07 17:41:34;;;;;;;;;;;3.70;99.30;;;;;;4903889;29;19915;-90
2022/02/07 17:44:06;;;;;;;;;;;3.60;98.40;;;;;;4917658;29;19919;-90
2022/02/07 17:46:49;;;;;;;;;;;;;;;;;;;;;
2022/02/07 17:49:19;;;;;;;;;;;3.60;99.10;;;;;;4920122;29;19917;-91
2022/02/07 17:51:49;;;;;;;;;;;3.60;98.60;;;;;;4902877;29;19915;-90
2022/02/07 17:57:14;;;;;;;;;;;3.50;98.80;;;;;;4909722;29;20033;-90
2022/02/07 17:59:50;;;;;;;;;;;;;;;;;;;;;
2022/02/07 18:02:16;;;;;;;;;;;3.50;99.60;;;;;;4920590;29;19918;-91
2022/02/07 18:04:44;;;;;;;;;;;3.50;99.10;;;;;;4903879;29;20009;-90
2022/02/07 18:07:22;;;;;;;;;;;3.50;99.30;;;;;;4910723;29;20018;-89
2022/02/07 18:09:59;;;;;;;;;;;3.40;99.90;;;;;;4912324;29;19915;-90
2022/02/07 18:12:30;;;;;;;;;;;3.50;99.90;;;;;;4910101;29;20331;-90
2022/02/07 18:14:59;;;;;;;;;;;3.60;99.90;;;;;;4920780;29;19922;-90
2022/02/07 18:17:25;;;;;;;;;;;3.60;99.90;;;;;;4918461;29;19922;-90
2022/02/07 18:19:55;;;;;;;;;;;3.60;99.90;;;;;;4918534;29;19915;-90
2022/02/07 18:22:24;;;;;;;;;;;3.60;99.90;;;;;;4918612;29;19911;-90
2022/02/07 18:25:02;;;;;;;;;;;3.60;99.90;;;;;;4918384;29;20251;-90
2022/02/07 18:27:30;;;;;;;;;;;3.60;99.90;;;;;;4919194;29;19937;-90
2022/02/07 18:29:59;;;;;;;;;;;3.60;99.90;;;;;;4918513;29;19915;-90
2022/02/07 18:32:30;;;;;;;;;;;3.60;99.90;;;;;;4918380;29;20384;-91
2022/02/07 18:35:01;;;;;;;;;;;3.70;99.90;;;;;;4903234;29;19911;-90
2022/02/07 18:37:29;;;;;;;;;;;3.70;99.90;;;;;;4917792;29;19970;-90
2022/02/07 18:40:07;;;;;;;;;;;;;;;;;;;;;